createdAt,value
2022-09-18T00:03:00.482Z,50.5
2022-09-18T00:13:00.205Z,50.5
2022-09-18T00:23:00.444Z,50.5
2022-09-18T00:33:00.204Z,50.5
2022-09-18T00:43:00.494Z,50.5
2022-09-18T00:53:00.206Z,50.5
2022-09-18T01:03:00.442Z,50.5
2022-09-18T01:13:00.185Z,51.5
2022-09-18T01:23:00.422Z,50.5
2022-09-18T01:33:00.391Z,50.5
2022-09-18T01:43:00.420Z,50.5
2022-09-18T01:53:00.395Z,50.5
2022-09-18T02:03:00.438Z,51.5
2022-09-18T02:13:00.367Z,52
2022-09-18T02:23:00.412Z,50.5
2022-09-18T02:33:00.371Z,50.5
2022-09-18T02:43:00.616Z,50.5
2022-09-18T02:53:00.368Z,51.5
2022-09-18T03:03:00.596Z,50.5
2022-09-18T03:13:00.373Z,52
2022-09-18T03:23:00.589Z,51
2022-09-18T03:33:00.392Z,50.5
2022-09-18T03:43:00.602Z,50.5
2022-09-18T03:53:00.421Z,51.5
2022-09-18T04:03:00.719Z,50.5
2022-09-18T04:13:00.437Z,52
2022-09-18T04:23:00.637Z,52
2022-09-18T04:33:00.415Z,51.5
2022-09-18T04:43:00.659Z,52
2022-09-18T04:53:00.419Z,52
2022-09-18T05:03:00.645Z,52
2022-09-18T05:13:00.411Z,52
2022-09-18T05:23:00.651Z,52
2022-09-18T05:33:00.615Z,52
2022-09-18T05:43:00.641Z,50.5
2022-09-18T05:53:00.648Z,52
2022-09-18T06:03:00.713Z,50.5
2022-09-18T06:13:00.641Z,50.5
2022-09-18T06:23:00.675Z,51.5
2022-09-18T06:33:00.656Z,50.5
2022-09-18T06:43:00.656Z,50.5
2022-09-18T06:53:00.685Z,50.5
2022-09-18T07:03:00.703Z,50.5
2022-09-18T07:13:00.685Z,50.5
2022-09-18T07:23:00.677Z,50.5
2022-09-18T07:33:00.654Z,50.5
2022-09-18T07:43:00.903Z,50.5
2022-09-18T07:53:00.644Z,50.5
2022-09-18T08:03:00.921Z,50.5
2022-09-18T08:13:00.660Z,50.5
2022-09-18T08:23:00.890Z,50.5
2022-09-18T08:33:00.664Z,50.5
2022-09-18T08:43:00.893Z,48.5
2022-09-18T08:53:00.675Z,48.5
2022-09-18T09:03:00.895Z,48.5
2022-09-18T09:13:00.853Z,48.5
2022-09-18T09:23:00.965Z,48.5
2022-09-18T09:33:00.712Z,49
2022-09-18T09:43:00.959Z,50
2022-09-18T09:53:00.757Z,48.5
2022-09-18T10:03:00.990Z,48.5
2022-09-18T10:13:00.747Z,48.5
2022-09-18T10:23:00.953Z,48.5
2022-09-18T10:33:00.935Z,48
2022-09-18T10:43:00.983Z,48
2022-09-18T10:53:00.951Z,46.5
2022-09-18T11:03:01.030Z,48
2022-09-18T11:13:01.137Z,48
2022-09-18T11:23:00.844Z,47.5
2022-09-18T11:33:00.949Z,48
2022-09-18T11:43:00.965Z,47
2022-09-18T11:53:00.948Z,46.5
2022-09-18T12:03:01.077Z,48
2022-09-18T12:12:59.609Z,46.5
2022-09-18T12:22:59.825Z,47.5
2022-09-18T12:32:59.592Z,48
2022-09-18T12:43:00.485Z,50
2022-09-18T12:53:09.347Z,48.5
2022-09-18T13:03:00.503Z,48.5
2022-09-18T13:13:00.240Z,48.5
2022-09-18T13:23:01.210Z,48.5
2022-09-18T13:33:00.911Z,48
2022-09-18T13:43:01.157Z,48
2022-09-18T13:53:01.227Z,48
2022-09-18T14:03:01.096Z,48
2022-09-18T14:13:01.115Z,48
2022-09-18T14:23:01.116Z,48
2022-09-18T14:33:01.080Z,48
2022-09-18T14:43:01.121Z,48
2022-09-18T14:53:01.109Z,48
2022-09-18T15:03:01.136Z,48
2022-09-18T15:13:01.106Z,48
2022-09-18T15:23:01.120Z,50
2022-09-18T15:33:01.125Z,49
2022-09-18T15:43:01.361Z,48.5
2022-09-18T15:53:01.152Z,48.5
2022-09-18T16:03:01.359Z,48.5
2022-09-18T16:13:01.134Z,48.5
2022-09-18T16:23:01.372Z,48.5
2022-09-18T16:33:01.149Z,48.5
2022-09-18T16:43:01.373Z,48.5
2022-09-18T16:53:01.677Z,48.5
2022-09-18T17:03:01.387Z,48.5
2022-09-18T17:13:01.486Z,50
2022-09-18T17:23:02.223Z,49
2022-09-18T17:33:01.328Z,50
2022-09-18T17:43:01.318Z,50
2022-09-18T17:53:01.338Z,50
2022-09-18T18:03:01.368Z,50
2022-09-18T18:13:01.337Z,50
2022-09-18T18:23:01.346Z,50
2022-09-18T18:33:01.321Z,50
2022-09-18T18:43:01.475Z,50
2022-09-18T18:53:01.301Z,50
2022-09-18T19:03:01.424Z,50
2022-09-18T19:13:01.320Z,50
2022-09-18T19:23:01.526Z,50
2022-09-18T19:33:01.289Z,50
2022-09-18T19:43:01.534Z,50
2022-09-18T19:53:01.308Z,50
2022-09-18T20:03:01.530Z,50
2022-09-18T20:13:01.504Z,50
2022-09-18T20:23:01.507Z,50
2022-09-18T20:33:01.528Z,50
2022-09-18T20:43:01.540Z,50
2022-09-18T20:53:01.518Z,50
2022-09-18T21:03:01.496Z,50
2022-09-18T21:13:01.482Z,50
2022-09-18T21:23:01.706Z,50
2022-09-18T21:33:01.489Z,50
2022-09-18T21:43:01.615Z,50
2022-09-18T21:53:01.474Z,50
2022-09-18T22:03:01.696Z,50
2022-09-18T22:13:01.481Z,50
2022-09-18T22:23:01.716Z,50
2022-09-18T22:33:01.485Z,50
2022-09-18T22:43:01.598Z,50
2022-09-18T22:53:01.662Z,50
2022-09-18T23:03:01.583Z,50
2022-09-18T23:13:01.652Z,50
2022-09-18T23:23:01.680Z,50
2022-09-18T23:33:01.567Z,50
2022-09-18T23:43:01.773Z,50
2022-09-18T23:53:01.569Z,50
